sensor_id;sensor_type;location;lat;lon;timestamp;noise_LAeq;noise_LA_min;noise_LA_max;noise_LA01;noise_LA95
4048;Laerm;2038;51.728;6.674;2024-01-16T00:00:26;35.63;23.90;39.21;;
4048;Laerm;2038;51.728;6.674;2024-01-16T00:02:53;35.59;23.90;39.34;;
4048;Laerm;2038;51.728;6.674;2024-01-16T00:05:19;35.58;23.90;38.81;;
4048;Laerm;2038;51.728;6.674;2024-01-16T00:07:45;35.59;23.90;38.81;;
4048;Laerm;2038;51.728;6.674;2024-01-16T00:10:12;35.59;23.90;38.74;;
4048;Laerm;2038;51.728;6.674;2024-01-16T00:12:38;35.61;26.91;39.08;;
4048;Laerm;2038;51.728;6.674;2024-01-16T00:15:06;35.58;23.90;39.46;;
4048;Laerm;2038;51.728;6.674;2024-01-16T00:17:33;35.58;23.90;39.08;;
4048;Laerm;2038;51.728;6.674;2024-01-16T00:19:59;35.61;23.90;39.70;;
4048;Laerm;2038;51.728;6.674;2024-01-16T00:22:27;35.58;23.90;39.46;;
4048;Laerm;2038;51.728;6.674;2024-01-16T00:24:53;35.62;23.90;39.08;;
4048;Laerm;2038;51.728;6.674;2024-01-16T00:27:20;35.58;23.90;39.08;;
4048;Laerm;2038;51.728;6.674;2024-01-16T00:29:46;35.65;23.90;39.08;;
4048;Laerm;2038;51.728;6.674;2024-01-16T00:32:12;35.62;26.56;39.68;;
4048;Laerm;2038;51.728;6.674;2024-01-16T00:34:42;35.59;23.90;39.58;;
4048;Laerm;2038;51.728;6.674;2024-01-16T00:37:08;35.62;23.55;39.58;;
4048;Laerm;2038;51.728;6.674;2024-01-16T00:39:35;35.60;26.91;40.03;;
4048;Laerm;2038;51.728;6.674;2024-01-16T00:42:02;35.61;23.90;39.46;;
4048;Laerm;2038;51.728;6.674;2024-01-16T00:44:28;35.62;23.90;39.34;;
4048;Laerm;2038;51.728;6.674;2024-01-16T00:46:55;35.60;23.90;39.34;;
4048;Laerm;2038;51.728;6.674;2024-01-16T00:49:21;35.61;26.91;39.08;;
4048;Laerm;2038;51.728;6.674;2024-01-16T00:51:47;35.56;5.00;39.34;;
4048;Laerm;2038;51.728;6.674;2024-01-16T00:54:13;35.58;5.00;39.81;;
4048;Laerm;2038;51.728;6.674;2024-01-16T00:56:42;35.60;5.00;39.58;;
4048;Laerm;2038;51.728;6.674;2024-01-16T00:59:09;35.59;5.00;38.95;;
4048;Laerm;2038;51.728;6.674;2024-01-16T01:01:37;35.58;23.90;39.21;;
4048;Laerm;2038;51.728;6.674;2024-01-16T01:04:04;35.59;23.90;39.58;;
4048;Laerm;2038;51.728;6.674;2024-01-16T01:06:30;35.60;26.91;38.95;;
4048;Laerm;2038;51.728;6.674;2024-01-16T01:08:56;35.61;26.91;39.21;;
4048;Laerm;2038;51.728;6.674;2024-01-16T01:11:22;35.56;23.90;39.58;;
4048;Laerm;2038;51.728;6.674;2024-01-16T01:13:49;35.58;23.90;39.34;;
4048;Laerm;2038;51.728;6.674;2024-01-16T01:16:15;35.56;23.90;38.95;;
4048;Laerm;2038;51.728;6.674;2024-01-16T01:18:41;35.59;26.56;39.21;;
4048;Laerm;2038;51.728;6.674;2024-01-16T01:21:07;35.59;23.90;39.21;;
4048;Laerm;2038;51.728;6.674;2024-01-16T01:23:33;35.58;5.00;39.34;;
4048;Laerm;2038;51.728;6.674;2024-01-16T01:26:00;35.57;26.56;39.08;;
4048;Laerm;2038;51.728;6.674;2024-01-16T01:28:26;35.54;23.90;38.81;;
4048;Laerm;2038;51.728;6.674;2024-01-16T01:30:52;35.55;26.91;38.81;;
4048;Laerm;2038;51.728;6.674;2024-01-16T01:33:19;35.61;23.90;39.08;;
4048;Laerm;2038;51.728;6.674;2024-01-16T01:35:45;35.57;23.90;39.21;;
4048;Laerm;2038;51.728;6.674;2024-01-16T01:38:11;35.59;23.90;39.92;;
4048;Laerm;2038;51.728;6.674;2024-01-16T01:40:37;35.64;23.90;39.08;;
4048;Laerm;2038;51.728;6.674;2024-01-16T01:43:25;35.61;5.00;39.58;;
4048;Laerm;2038;51.728;6.674;2024-01-16T01:46:17;35.59;23.90;39.58;;
4048;Laerm;2038;51.728;6.674;2024-01-16T01:48:49;35.61;5.00;39.08;;
4048;Laerm;2038;51.728;6.674;2024-01-16T01:51:18;35.63;23.90;39.08;;
4048;Laerm;2038;51.728;6.674;2024-01-16T01:53:47;35.59;23.90;39.46;;
4048;Laerm;2038;51.728;6.674;2024-01-16T01:56:17;35.61;23.90;39.46;;
4048;Laerm;2038;51.728;6.674;2024-01-16T01:58:56;35.62;26.91;39.46;;
4048;Laerm;2038;51.728;6.674;2024-01-16T02:01:25;35.59;23.90;39.46;;
4048;Laerm;2038;51.728;6.674;2024-01-16T02:03:54;35.61;26.91;39.21;;
4048;Laerm;2038;51.728;6.674;2024-01-16T02:06:21;35.62;23.90;39.34;;
4048;Laerm;2038;51.728;6.674;2024-01-16T02:08:47;35.61;5.00;38.81;;
4048;Laerm;2038;51.728;6.674;2024-01-16T02:11:14;35.64;23.90;39.58;;
4048;Laerm;2038;51.728;6.674;2024-01-16T02:13:41;35.63;5.00;38.95;;
4048;Laerm;2038;51.728;6.674;2024-01-16T02:16:22;35.55;5.00;39.21;;
4048;Laerm;2038;51.728;6.674;2024-01-16T02:18:49;35.60;23.90;39.81;;
4048;Laerm;2038;51.728;6.674;2024-01-16T02:21:21;35.59;23.90;39.68;;
4048;Laerm;2038;51.728;6.674;2024-01-16T02:23:48;35.60;26.91;39.21;;
4048;Laerm;2038;51.728;6.674;2024-01-16T02:26:15;35.62;23.90;38.95;;
4048;Laerm;2038;51.728;6.674;2024-01-16T02:28:42;35.61;23.90;39.21;;
4048;Laerm;2038;51.728;6.674;2024-01-16T02:31:08;35.59;5.00;39.08;;
4048;Laerm;2038;51.728;6.674;2024-01-16T02:33:35;35.57;26.91;39.81;;
4048;Laerm;2038;51.728;6.674;2024-01-16T02:36:01;35.61;23.90;38.95;;
4048;Laerm;2038;51.728;6.674;2024-01-16T02:38:27;35.59;23.90;39.35;;
4048;Laerm;2038;51.728;6.674;2024-01-16T02:40:53;35.61;23.90;38.95;;
4048;Laerm;2038;51.728;6.674;2024-01-16T02:43:19;35.61;23.90;39.08;;
4048;Laerm;2038;51.728;6.674;2024-01-16T02:45:46;35.57;23.90;39.08;;
4048;Laerm;2038;51.728;6.674;2024-01-16T02:48:12;35.61;23.90;39.46;;
4048;Laerm;2038;51.728;6.674;2024-01-16T02:50:38;35.59;23.90;39.08;;
4048;Laerm;2038;51.728;6.674;2024-01-16T02:53:04;35.60;5.00;38.95;;
4048;Laerm;2038;51.728;6.674;2024-01-16T02:55:31;35.56;5.00;39.08;;
4048;Laerm;2038;51.728;6.674;2024-01-16T02:57:57;35.63;23.90;39.58;;
4048;Laerm;2038;51.728;6.674;2024-01-16T03:00:23;35.56;5.00;39.34;;
4048;Laerm;2038;51.728;6.674;2024-01-16T03:02:49;35.54;23.90;39.70;;
4048;Laerm;2038;51.728;6.674;2024-01-16T03:05:15;35.60;23.90;38.95;;
4048;Laerm;2038;51.728;6.674;2024-01-16T03:07:42;35.57;26.56;38.95;;
4048;Laerm;2038;51.728;6.674;2024-01-16T03:10:09;35.58;5.00;39.21;;
4048;Laerm;2038;51.728;6.674;2024-01-16T03:12:35;35.59;23.90;39.21;;
4048;Laerm;2038;51.728;6.674;2024-01-16T03:15:01;35.58;26.91;39.08;;
4048;Laerm;2038;51.728;6.674;2024-01-16T03:17:27;35.63;26.91;38.81;;
4048;Laerm;2038;51.728;6.674;2024-01-16T03:19:53;35.61;26.91;39.21;;
4048;Laerm;2038;51.728;6.674;2024-01-16T03:22:20;35.62;23.90;39.34;;
4048;Laerm;2038;51.728;6.674;2024-01-16T03:24:46;35.59;23.90;39.08;;
4048;Laerm;2038;51.728;6.674;2024-01-16T03:27:12;35.61;23.90;39.21;;
4048;Laerm;2038;51.728;6.674;2024-01-16T03:29:39;35.59;23.90;38.95;;
4048;Laerm;2038;51.728;6.674;2024-01-16T03:32:05;35.61;5.00;39.08;;
4048;Laerm;2038;51.728;6.674;2024-01-16T03:34:32;35.58;26.91;39.46;;
4048;Laerm;2038;51.728;6.674;2024-01-16T03:36:58;35.58;5.00;39.46;;
4048;Laerm;2038;51.728;6.674;2024-01-16T03:39:24;35.59;23.90;39.08;;
4048;Laerm;2038;51.728;6.674;2024-01-16T03:41:50;35.58;23.90;38.95;;
4048;Laerm;2038;51.728;6.674;2024-01-16T03:44:16;35.65;23.90;39.34;;
4048;Laerm;2038;51.728;6.674;2024-01-16T03:46:43;35.59;5.00;39.34;;
4048;Laerm;2038;51.728;6.674;2024-01-16T03:49:09;35.56;23.90;39.46;;
4048;Laerm;2038;51.728;6.674;2024-01-16T03:51:35;35.59;23.90;39.21;;
4048;Laerm;2038;51.728;6.674;2024-01-16T03:54:02;35.56;23.90;39.34;;
4048;Laerm;2038;51.728;6.674;2024-01-16T03:56:28;35.57;23.90;39.34;;
4048;Laerm;2038;51.728;6.674;2024-01-16T03:58:54;35.59;23.90;38.95;;
4048;Laerm;2038;51.728;6.674;2024-01-16T04:01:33;35.60;26.91;38.95;;
4048;Laerm;2038;51.728;6.674;2024-01-16T04:04:00;35.64;23.90;39.21;;
4048;Laerm;2038;51.728;6.674;2024-01-16T04:06:26;35.59;26.91;39.23;;
4048;Laerm;2038;51.728;6.674;2024-01-16T04:08:53;35.60;26.91;39.08;;
4048;Laerm;2038;51.728;6.674;2024-01-16T04:11:19;35.61;5.00;39.21;;
4048;Laerm;2038;51.728;6.674;2024-01-16T04:13:45;35.63;23.90;39.21;;
4048;Laerm;2038;51.728;6.674;2024-01-16T04:16:13;35.58;23.90;38.99;;
4048;Laerm;2038;51.728;6.674;2024-01-16T04:18:42;35.58;5.00;39.21;;
4048;Laerm;2038;51.728;6.674;2024-01-16T04:21:09;35.58;23.90;38.95;;
4048;Laerm;2038;51.728;6.674;2024-01-16T04:23:35;35.59;23.90;39.21;;
4048;Laerm;2038;51.728;6.674;2024-01-16T04:26:01;35.58;23.90;39.34;;
4048;Laerm;2038;51.728;6.674;2024-01-16T04:28:28;35.61;26.91;39.08;;
4048;Laerm;2038;51.728;6.674;2024-01-16T04:30:54;35.56;23.90;39.21;;
4048;Laerm;2038;51.728;6.674;2024-01-16T04:33:21;35.61;23.90;39.08;;
4048;Laerm;2038;51.728;6.674;2024-01-16T04:35:47;35.62;23.90;39.58;;
4048;Laerm;2038;51.728;6.674;2024-01-16T04:38:13;35.58;26.91;38.95;;
4048;Laerm;2038;51.728;6.674;2024-01-16T04:40:39;35.61;23.90;39.08;;
4048;Laerm;2038;51.728;6.674;2024-01-16T04:43:06;35.60;5.00;39.34;;
4048;Laerm;2038;51.728;6.674;2024-01-16T04:45:32;35.62;23.90;39.34;;
4048;Laerm;2038;51.728;6.674;2024-01-16T04:47:58;35.58;23.90;39.21;;
4048;Laerm;2038;51.728;6.674;2024-01-16T04:50:25;35.60;23.55;39.46;;
4048;Laerm;2038;51.728;6.674;2024-01-16T04:53:01;35.60;5.00;39.08;;
4048;Laerm;2038;51.728;6.674;2024-01-16T04:55:28;35.61;26.91;39.34;;
4048;Laerm;2038;51.728;6.674;2024-01-16T04:57:55;35.59;23.90;39.21;;
4048;Laerm;2038;51.728;6.674;2024-01-16T05:00:22;35.57;23.90;39.34;;
4048;Laerm;2038;51.728;6.674;2024-01-16T05:02:49;35.56;23.90;39.21;;
4048;Laerm;2038;51.728;6.674;2024-01-16T05:05:15;35.59;23.90;39.46;;
4048;Laerm;2038;51.728;6.674;2024-01-16T05:07:42;35.60;26.91;39.21;;
4048;Laerm;2038;51.728;6.674;2024-01-16T05:10:12;35.61;23.90;39.34;;
4048;Laerm;2038;51.728;6.674;2024-01-16T05:12:41;35.55;23.90;39.08;;
4048;Laerm;2038;51.728;6.674;2024-01-16T05:15:08;35.58;26.56;39.08;;
4048;Laerm;2038;51.728;6.674;2024-01-16T05:17:37;35.61;26.91;39.08;;
4048;Laerm;2038;51.728;6.674;2024-01-16T05:20:04;35.58;26.56;39.21;;
4048;Laerm;2038;51.728;6.674;2024-01-16T05:22:31;35.60;5.00;39.08;;
4048;Laerm;2038;51.728;6.674;2024-01-16T05:24:58;35.58;5.00;39.58;;
4048;Laerm;2038;51.728;6.674;2024-01-16T05:27:25;35.57;23.55;39.21;;
4048;Laerm;2038;51.728;6.674;2024-01-16T05:29:51;35.57;5.00;39.21;;
4048;Laerm;2038;51.728;6.674;2024-01-16T05:32:17;35.61;23.55;39.81;;
4048;Laerm;2038;51.728;6.674;2024-01-16T05:34:43;35.60;5.00;38.87;;
4048;Laerm;2038;51.728;6.674;2024-01-16T05:37:10;35.59;26.91;39.08;;
4048;Laerm;2038;51.728;6.674;2024-01-16T05:39:36;35.56;5.00;39.34;;
4048;Laerm;2038;51.728;6.674;2024-01-16T05:42:03;35.59;23.90;39.21;;
4048;Laerm;2038;51.728;6.674;2024-01-16T05:44:29;35.58;5.00;39.46;;
4048;Laerm;2038;51.728;6.674;2024-01-16T05:46:55;35.59;5.00;40.23;;
4048;Laerm;2038;51.728;6.674;2024-01-16T05:49:21;35.57;23.90;39.46;;
4048;Laerm;2038;51.728;6.674;2024-01-16T05:51:48;35.57;26.91;39.08;;
4048;Laerm;2038;51.728;6.674;2024-01-16T05:54:14;35.58;23.90;39.08;;
4048;Laerm;2038;51.728;6.674;2024-01-16T05:56:40;35.60;23.90;39.35;;
4048;Laerm;2038;51.728;6.674;2024-01-16T05:59:07;35.64;23.90;39.21;;
4048;Laerm;2038;51.728;6.674;2024-01-16T06:01:33;35.60;5.00;39.58;;
4048;Laerm;2038;51.728;6.674;2024-01-16T06:04:00;35.60;23.90;39.34;;
4048;Laerm;2038;51.728;6.674;2024-01-16T06:06:26;35.61;23.90;39.08;;
4048;Laerm;2038;51.728;6.674;2024-01-16T06:08:52;35.59;23.90;39.08;;
4048;Laerm;2038;51.728;6.674;2024-01-16T06:11:19;35.62;23.90;39.58;;
4048;Laerm;2038;51.728;6.674;2024-01-16T06:13:55;35.59;5.00;39.23;;
4048;Laerm;2038;51.728;6.674;2024-01-16T06:16:21;35.61;26.91;39.46;;
4048;Laerm;2038;51.728;6.674;2024-01-16T06:18:47;35.63;23.90;39.46;;
4048;Laerm;2038;51.728;6.674;2024-01-16T06:21:13;35.60;26.91;38.95;;
4048;Laerm;2038;51.728;6.674;2024-01-16T06:23:40;35.58;23.90;39.08;;
4048;Laerm;2038;51.728;6.674;2024-01-16T06:26:08;35.61;26.91;38.81;;
4048;Laerm;2038;51.728;6.674;2024-01-16T06:28:35;35.60;23.90;38.95;;
4048;Laerm;2038;51.728;6.674;2024-01-16T06:31:01;35.60;26.91;38.95;;
4048;Laerm;2038;51.728;6.674;2024-01-16T06:33:27;35.58;5.00;39.08;;
4048;Laerm;2038;51.728;6.674;2024-01-16T06:35:55;35.59;5.00;38.95;;
4048;Laerm;2038;51.728;6.674;2024-01-16T06:38:22;35.60;23.90;39.46;;
4048;Laerm;2038;51.728;6.674;2024-01-16T06:40:48;35.59;26.91;39.46;;
4048;Laerm;2038;51.728;6.674;2024-01-16T06:43:15;35.59;5.00;39.08;;
4048;Laerm;2038;51.728;6.674;2024-01-16T06:45:43;35.60;23.90;38.81;;
4048;Laerm;2038;51.728;6.674;2024-01-16T06:48:09;35.57;23.90;38.95;;
4048;Laerm;2038;51.728;6.674;2024-01-16T06:50:35;35.57;23.90;39.46;;
4048;Laerm;2038;51.728;6.674;2024-01-16T06:53:02;35.61;23.90;38.81;;
4048;Laerm;2038;51.728;6.674;2024-01-16T06:55:28;35.57;23.90;39.21;;
4048;Laerm;2038;51.728;6.674;2024-01-16T06:57:54;35.59;26.91;39.21;;
4048;Laerm;2038;51.728;6.674;2024-01-16T07:00:21;35.57;23.90;39.08;;
4048;Laerm;2038;51.728;6.674;2024-01-16T07:02:48;35.60;23.90;39.21;;
4048;Laerm;2038;51.728;6.674;2024-01-16T07:05:17;35.56;23.90;39.34;;
4048;Laerm;2038;51.728;6.674;2024-01-16T07:07:43;35.57;23.90;39.58;;
4048;Laerm;2038;51.728;6.674;2024-01-16T07:10:10;35.58;23.90;39.34;;
4048;Laerm;2038;51.728;6.674;2024-01-16T07:12:44;35.56;23.90;39.46;;
4048;Laerm;2038;51.728;6.674;2024-01-16T07:15:11;35.56;26.91;39.11;;
4048;Laerm;2038;51.728;6.674;2024-01-16T07:17:37;35.60;26.91;39.21;;
4048;Laerm;2038;51.728;6.674;2024-01-16T07:20:04;35.58;26.91;39.46;;
4048;Laerm;2038;51.728;6.674;2024-01-16T07:22:31;35.55;23.90;38.95;;
4048;Laerm;2038;51.728;6.674;2024-01-16T07:24:57;35.56;26.91;39.08;;
4048;Laerm;2038;51.728;6.674;2024-01-16T07:27:23;35.63;23.90;39.08;;
4048;Laerm;2038;51.728;6.674;2024-01-16T07:29:49;35.60;23.90;39.08;;
4048;Laerm;2038;51.728;6.674;2024-01-16T07:32:15;35.59;26.91;39.21;;
4048;Laerm;2038;51.728;6.674;2024-01-16T07:34:42;35.61;23.90;39.34;;
4048;Laerm;2038;51.728;6.674;2024-01-16T07:37:08;35.57;23.90;39.46;;
4048;Laerm;2038;51.728;6.674;2024-01-16T07:39:34;35.57;26.56;39.34;;
4048;Laerm;2038;51.728;6.674;2024-01-16T07:42:01;35.57;26.91;39.21;;
4048;Laerm;2038;51.728;6.674;2024-01-16T07:44:27;35.59;23.90;39.21;;
4048;Laerm;2038;51.728;6.674;2024-01-16T07:46:53;35.61;23.90;39.58;;
4048;Laerm;2038;51.728;6.674;2024-01-16T07:49:19;35.60;23.90;39.21;;
4048;Laerm;2038;51.728;6.674;2024-01-16T07:51:45;35.56;5.00;39.34;;
4048;Laerm;2038;51.728;6.674;2024-01-16T07:54:12;35.56;23.90;39.21;;
4048;Laerm;2038;51.728;6.674;2024-01-16T07:56:39;35.56;23.90;39.34;;
4048;Laerm;2038;51.728;6.674;2024-01-16T07:59:06;35.59;5.00;39.21;;
4048;Laerm;2038;51.728;6.674;2024-01-16T08:01:32;35.57;5.00;39.46;;
4048;Laerm;2038;51.728;6.674;2024-01-16T08:03:59;35.56;23.90;39.08;;
4048;Laerm;2038;51.728;6.674;2024-01-16T08:06:26;35.56;5.00;39.21;;
4048;Laerm;2038;51.728;6.674;2024-01-16T08:08:52;35.56;23.90;39.34;;
4048;Laerm;2038;51.728;6.674;2024-01-16T08:11:19;35.52;5.00;39.21;;
4048;Laerm;2038;51.728;6.674;2024-01-16T08:13:45;35.51;23.90;39.34;;
4048;Laerm;2038;51.728;6.674;2024-01-16T08:16:11;35.54;23.90;38.99;;
4048;Laerm;2038;51.728;6.674;2024-01-16T08:18:37;35.54;26.56;38.95;;
4048;Laerm;2038;51.728;6.674;2024-01-16T08:21:04;35.57;23.90;39.70;;
4048;Laerm;2038;51.728;6.674;2024-01-16T08:23:30;35.56;23.90;39.34;;
4048;Laerm;2038;51.728;6.674;2024-01-16T08:25:56;35.57;23.90;39.11;;
4048;Laerm;2038;51.728;6.674;2024-01-16T08:28:22;35.54;5.00;39.46;;
4048;Laerm;2038;51.728;6.674;2024-01-16T08:30:50;35.55;23.90;39.21;;
4048;Laerm;2038;51.728;6.674;2024-01-16T08:33:17;35.52;23.90;39.08;;
4048;Laerm;2038;51.728;6.674;2024-01-16T08:35:43;35.54;23.90;39.81;;
4048;Laerm;2038;51.728;6.674;2024-01-16T08:38:10;35.52;23.90;38.95;;
4048;Laerm;2038;51.728;6.674;2024-01-16T08:40:36;35.52;5.00;38.95;;
4048;Laerm;2038;51.728;6.674;2024-01-16T08:43:03;35.51;26.91;39.08;;
4048;Laerm;2038;51.728;6.674;2024-01-16T08:45:29;35.52;23.90;38.81;;
4048;Laerm;2038;51.728;6.674;2024-01-16T08:47:56;35.56;5.00;39.58;;
4048;Laerm;2038;51.728;6.674;2024-01-16T08:50:23;35.53;5.00;39.08;;
4048;Laerm;2038;51.728;6.674;2024-01-16T08:52:49;35.48;26.91;39.21;;
4048;Laerm;2038;51.728;6.674;2024-01-16T08:55:15;35.50;23.90;39.34;;
4048;Laerm;2038;51.728;6.674;2024-01-16T08:57:41;35.46;23.90;39.08;;
4048;Laerm;2038;51.728;6.674;2024-01-16T09:00:10;35.47;23.90;39.08;;
4048;Laerm;2038;51.728;6.674;2024-01-16T09:02:36;35.49;5.00;39.23;;
4048;Laerm;2038;51.728;6.674;2024-01-16T09:05:03;35.48;5.00;39.08;;
4048;Laerm;2038;51.728;6.674;2024-01-16T09:07:31;35.51;23.90;38.95;;
4048;Laerm;2038;51.728;6.674;2024-01-16T09:09:57;35.45;23.90;39.08;;
4048;Laerm;2038;51.728;6.674;2024-01-16T09:12:23;35.44;26.91;39.21;;
4048;Laerm;2038;51.728;6.674;2024-01-16T09:14:49;35.49;5.00;39.11;;
4048;Laerm;2038;51.728;6.674;2024-01-16T09:17:15;35.48;5.00;39.21;;
4048;Laerm;2038;51.728;6.674;2024-01-16T09:19:42;35.49;23.90;39.08;;
4048;Laerm;2038;51.728;6.674;2024-01-16T09:22:08;35.47;23.90;39.34;;
4048;Laerm;2038;51.728;6.674;2024-01-16T09:24:34;35.45;5.00;38.87;;
4048;Laerm;2038;51.728;6.674;2024-01-16T09:27:03;35.46;23.90;39.08;;
4048;Laerm;2038;51.728;6.674;2024-01-16T09:29:32;35.43;5.00;39.08;;
4048;Laerm;2038;51.728;6.674;2024-01-16T09:31:59;35.41;26.91;39.21;;
4048;Laerm;2038;51.728;6.674;2024-01-16T09:34:25;35.44;5.00;39.21;;
4048;Laerm;2038;51.728;6.674;2024-01-16T09:36:52;35.47;23.90;38.95;;
4048;Laerm;2038;51.728;6.674;2024-01-16T09:39:18;35.46;5.00;39.08;;
4048;Laerm;2038;51.728;6.674;2024-01-16T09:41:45;35.44;23.90;39.08;;
4048;Laerm;2038;51.728;6.674;2024-01-16T09:44:11;35.41;23.90;39.08;;
4048;Laerm;2038;51.728;6.674;2024-01-16T09:46:39;35.44;23.90;39.08;;
4048;Laerm;2038;51.728;6.674;2024-01-16T09:49:07;35.46;5.00;38.95;;
4048;Laerm;2038;51.728;6.674;2024-01-16T09:51:34;35.43;23.90;39.21;;
4048;Laerm;2038;51.728;6.674;2024-01-16T09:54:00;35.45;5.00;39.08;;
4048;Laerm;2038;51.728;6.674;2024-01-16T09:56:31;35.45;23.90;38.95;;
4048;Laerm;2038;51.728;6.674;2024-01-16T09:59:05;35.42;5.00;39.08;;
4048;Laerm;2038;51.728;6.674;2024-01-16T10:01:34;35.43;5.00;39.21;;
4048;Laerm;2038;51.728;6.674;2024-01-16T10:04:01;35.40;23.90;39.46;;
4048;Laerm;2038;51.728;6.674;2024-01-16T10:06:31;35.45;23.90;38.81;;
4048;Laerm;2038;51.728;6.674;2024-01-16T10:08:59;35.44;23.90;38.95;;
4048;Laerm;2038;51.728;6.674;2024-01-16T10:11:26;35.41;23.90;39.21;;
4048;Laerm;2038;51.728;6.674;2024-01-16T10:13:52;35.46;23.90;39.08;;
4048;Laerm;2038;51.728;6.674;2024-01-16T10:16:18;35.42;23.90;38.95;;
4048;Laerm;2038;51.728;6.674;2024-01-16T10:18:46;35.44;23.90;39.08;;
4048;Laerm;2038;51.728;6.674;2024-01-16T10:21:22;35.40;23.55;39.34;;
4048;Laerm;2038;51.728;6.674;2024-01-16T10:23:50;35.46;26.91;39.58;;
4048;Laerm;2038;51.728;6.674;2024-01-16T10:26:16;35.46;26.91;39.34;;
4048;Laerm;2038;51.728;6.674;2024-01-16T10:28:44;35.43;23.90;38.95;;
4048;Laerm;2038;51.728;6.674;2024-01-16T10:31:13;35.44;5.00;39.08;;
4048;Laerm;2038;51.728;6.674;2024-01-16T10:33:42;35.44;23.55;39.21;;
4048;Laerm;2038;51.728;6.674;2024-01-16T10:36:18;35.39;26.91;38.95;;
4048;Laerm;2038;51.728;6.674;2024-01-16T10:38:46;35.43;23.90;38.95;;
4048;Laerm;2038;51.728;6.674;2024-01-16T10:41:19;35.46;23.90;39.21;;
4048;Laerm;2038;51.728;6.674;2024-01-16T10:44:04;35.45;5.00;39.08;;
4048;Laerm;2038;51.728;6.674;2024-01-16T10:46:33;35.37;23.90;39.58;;
4048;Laerm;2038;51.728;6.674;2024-01-16T10:49:02;35.39;5.00;38.95;;
4048;Laerm;2038;51.728;6.674;2024-01-16T10:51:31;35.42;5.00;38.81;;
4048;Laerm;2038;51.728;6.674;2024-01-16T10:53:59;35.42;26.91;39.08;;
4048;Laerm;2038;51.728;6.674;2024-01-16T10:56:28;35.38;23.90;38.81;;
4048;Laerm;2038;51.728;6.674;2024-01-16T10:59:40;35.38;5.00;38.81;;
4048;Laerm;2038;51.728;6.674;2024-01-16T11:02:12;35.39;5.00;39.08;;
4048;Laerm;2038;51.728;6.674;2024-01-16T11:04:43;35.43;26.56;38.95;;
4048;Laerm;2038;51.728;6.674;2024-01-16T11:07:09;35.39;5.00;39.34;;
4048;Laerm;2038;51.728;6.674;2024-01-16T11:09:36;35.43;23.90;39.08;;
4048;Laerm;2038;51.728;6.674;2024-01-16T11:12:04;35.43;23.90;39.21;;
4048;Laerm;2038;51.728;6.674;2024-01-16T11:14:31;35.40;26.91;38.81;;
4048;Laerm;2038;51.728;6.674;2024-01-16T11:16:59;35.38;5.00;38.67;;
4048;Laerm;2038;51.728;6.674;2024-01-16T11:19:27;35.40;23.90;38.95;;
4048;Laerm;2038;51.728;6.674;2024-01-16T11:21:54;35.40;23.90;39.21;;
4048;Laerm;2038;51.728;6.674;2024-01-16T11:24:21;35.44;23.90;39.21;;
4048;Laerm;2038;51.728;6.674;2024-01-16T11:26:47;35.40;23.90;38.81;;
4048;Laerm;2038;51.728;6.674;2024-01-16T11:31:56;35.42;5.00;38.95;;
4048;Laerm;2038;51.728;6.674;2024-01-16T11:34:58;35.38;23.90;39.34;;
4048;Laerm;2038;51.728;6.674;2024-01-16T11:37:31;35.43;5.00;39.08;;
4048;Laerm;2038;51.728;6.674;2024-01-16T11:40:21;35.44;23.90;38.95;;
4048;Laerm;2038;51.728;6.674;2024-01-16T11:42:52;35.41;23.55;39.34;;
4048;Laerm;2038;51.728;6.674;2024-01-16T11:48:10;35.37;23.90;39.21;;
4048;Laerm;2038;51.728;6.674;2024-01-16T11:50:36;35.41;23.90;38.74;;
4048;Laerm;2038;51.728;6.674;2024-01-16T11:53:03;35.42;23.90;38.99;;
4048;Laerm;2038;51.728;6.674;2024-01-16T11:55:38;35.39;5.00;39.70;;
4048;Laerm;2038;51.728;6.674;2024-01-16T11:58:25;35.37;23.90;39.34;;
4048;Laerm;2038;51.728;6.674;2024-01-16T12:00:58;35.39;23.55;38.81;;
4048;Laerm;2038;51.728;6.674;2024-01-16T12:03:24;35.40;5.00;38.74;;
4048;Laerm;2038;51.728;6.674;2024-01-16T12:05:57;35.44;5.00;39.21;;
4048;Laerm;2038;51.728;6.674;2024-01-16T12:08:24;35.38;26.91;39.46;;
4048;Laerm;2038;51.728;6.674;2024-01-16T12:10:50;35.36;5.00;39.21;;
4048;Laerm;2038;51.728;6.674;2024-01-16T12:13:17;35.41;23.90;38.67;;
4048;Laerm;2038;51.728;6.674;2024-01-16T12:15:43;35.37;23.90;38.67;;
4048;Laerm;2038;51.728;6.674;2024-01-16T12:18:10;35.39;23.90;39.21;;
4048;Laerm;2038;51.728;6.674;2024-01-16T12:20:37;35.41;23.90;38.99;;
4048;Laerm;2038;51.728;6.674;2024-01-16T12:23:07;35.43;23.90;39.08;;
4048;Laerm;2038;51.728;6.674;2024-01-16T12:25:37;35.37;23.90;38.81;;
4048;Laerm;2038;51.728;6.674;2024-01-16T12:28:05;35.42;23.90;39.34;;
4048;Laerm;2038;51.728;6.674;2024-01-16T12:30:36;35.41;5.00;39.08;;
4048;Laerm;2038;51.728;6.674;2024-01-16T12:33:13;35.41;5.00;38.95;;
4048;Laerm;2038;51.728;6.674;2024-01-16T12:35:41;35.40;5.00;39.08;;
4048;Laerm;2038;51.728;6.674;2024-01-16T12:38:13;35.43;5.00;39.08;;
4048;Laerm;2038;51.728;6.674;2024-01-16T12:40:49;35.39;5.00;38.95;;
4048;Laerm;2038;51.728;6.674;2024-01-16T12:43:18;35.41;5.00;39.21;;
4048;Laerm;2038;51.728;6.674;2024-01-16T12:45:45;35.40;23.90;38.99;;
4048;Laerm;2038;51.728;6.674;2024-01-16T12:48:12;35.39;5.00;38.95;;
4048;Laerm;2038;51.728;6.674;2024-01-16T12:50:39;35.40;23.90;39.08;;
4048;Laerm;2038;51.728;6.674;2024-01-16T12:53:10;35.41;23.90;38.81;;
4048;Laerm;2038;51.728;6.674;2024-01-16T12:55:38;35.40;23.90;38.99;;
4048;Laerm;2038;51.728;6.674;2024-01-16T12:58:19;35.42;26.91;39.08;;
4048;Laerm;2038;51.728;6.674;2024-01-16T13:00:50;35.41;23.90;38.95;;
4048;Laerm;2038;51.728;6.674;2024-01-16T13:03:23;35.41;5.00;39.21;;
4048;Laerm;2038;51.728;6.674;2024-01-16T13:06:01;35.46;26.91;39.34;;
4048;Laerm;2038;51.728;6.674;2024-01-16T13:08:28;35.39;26.91;39.21;;
4048;Laerm;2038;51.728;6.674;2024-01-16T13:11:08;35.44;23.90;39.08;;
4048;Laerm;2038;51.728;6.674;2024-01-16T13:13:36;35.41;23.90;39.08;;
4048;Laerm;2038;51.728;6.674;2024-01-16T13:16:05;35.42;5.00;38.99;;
4048;Laerm;2038;51.728;6.674;2024-01-16T13:18:32;35.44;5.00;38.81;;
4048;Laerm;2038;51.728;6.674;2024-01-16T13:21:01;35.43;23.90;39.08;;
4048;Laerm;2038;51.728;6.674;2024-01-16T13:23:28;35.44;23.90;38.95;;
4048;Laerm;2038;51.728;6.674;2024-01-16T13:25:56;35.40;26.91;39.08;;
4048;Laerm;2038;51.728;6.674;2024-01-16T13:28:23;35.43;23.90;38.95;;
4048;Laerm;2038;51.728;6.674;2024-01-16T13:30:50;35.46;5.00;38.67;;
4048;Laerm;2038;51.728;6.674;2024-01-16T13:33:17;35.42;23.90;38.81;;
4048;Laerm;2038;51.728;6.674;2024-01-16T13:35:46;35.43;23.90;38.81;;
4048;Laerm;2038;51.728;6.674;2024-01-16T13:38:16;35.44;26.56;39.46;;
4048;Laerm;2038;51.728;6.674;2024-01-16T13:40:42;35.42;23.90;38.95;;
4048;Laerm;2038;51.728;6.674;2024-01-16T13:43:09;35.40;5.00;39.21;;
4048;Laerm;2038;51.728;6.674;2024-01-16T13:45:35;35.37;23.90;38.81;;
4048;Laerm;2038;51.728;6.674;2024-01-16T13:48:02;35.43;5.00;39.58;;
4048;Laerm;2038;51.728;6.674;2024-01-16T13:50:30;35.37;23.90;39.08;;
4048;Laerm;2038;51.728;6.674;2024-01-16T13:52:57;35.41;5.00;39.08;;
4048;Laerm;2038;51.728;6.674;2024-01-16T13:55:23;35.37;5.00;39.21;;
4048;Laerm;2038;51.728;6.674;2024-01-16T13:57:49;35.39;5.00;38.87;;
4048;Laerm;2038;51.728;6.674;2024-01-16T14:00:16;35.38;23.90;38.95;;
4048;Laerm;2038;51.728;6.674;2024-01-16T14:02:46;35.39;23.90;39.34;;
4048;Laerm;2038;51.728;6.674;2024-01-16T14:05:14;35.37;23.90;39.46;;
4048;Laerm;2038;51.728;6.674;2024-01-16T14:07:51;35.40;23.90;38.87;;
4048;Laerm;2038;51.728;6.674;2024-01-16T14:10:20;35.43;23.90;38.81;;
4048;Laerm;2038;51.728;6.674;2024-01-16T14:12:49;35.40;5.00;39.08;;
4048;Laerm;2038;51.728;6.674;2024-01-16T14:15:19;35.39;5.00;38.95;;
4048;Laerm;2038;51.728;6.674;2024-01-16T14:17:52;35.47;5.00;38.95;;
4048;Laerm;2038;51.728;6.674;2024-01-16T14:20:20;35.40;5.00;38.95;;